الصفحة الرئيسية
METAR-TAF:

METAR-TAF

مطار :

مطار أنتونيو بي وان بات الدولي

Hagåtña, غوام, الولايات المتحدة

دائرة عرض: 13-29N, خط طول: 144-48E, ارتفاع: 91 متر

مراقبة الطقس الحالي

تاريخ ووقت الإصدار 21 دقيقة قبل الساعة 00:14UTC
ريح 11 عقدة من الشرق
درجة الحرارة 29°درجة مئوية
الرطوبة 70%
ضغط 1014 hPa
الرؤية: 16.1 كم
غيوم قليلة على ارتفاع 2100 قدم
غيوم متفرقة على ارتفاع 2700 قدم

METAR: PGUM 290014Z 10011KT 10SM FEW021 SCT027 29/23 A2995 RMK AO2 T02940228 /

زمن: 10:35 (00:35 UTC)

توقعات

تاريخ ووقت الإصدار 50 دقيقة قبل الساعة 23:45UTC
التوقعات صالحة من29 الساعة 00 UTC إلى 30 الساعة 06 UTC
ريح 14 عقدة من الشرق
الرؤية: 10 كم
غيوم متفرقة على ارتفاع 1700 قدم
غيوم متفرقة على ارتفاع 5000 قدم
زخات في الجوار

TAF: PGUM 282345Z 2900/3006 08014KT P6SM VCSH SCT017 SCT050

أرصاد الطقس والتوقعات من أكثر من 4000 مطار (تقارير الطقس للمطار METAR والتنبؤ بالطقس بالمطارTAF).

المحطات المتاحة هي النقط الصفراء والحمراء على الخريطة.

حرك المؤشر فوق النقطة لمعرفة اسم المحطة.

ثم انقر لمعرفة أرصاد وتوقعات الطقس.

لتغيير الخارطة: اضغط على الأزرار الخضراء مع رمز الصليب الأسود للتكبير. على الزر الأخضر مع شرطة للتصغير، أو على الأسهم الخضراء للخرائط المجاورة.


METAR-TAF: